createdAt,value
2022-12-08T00:01:44.416Z,38.13
2022-12-08T00:04:13.242Z,35.47
2022-12-08T00:07:01.799Z,33.42
2022-12-08T00:09:38.966Z,32.97
2022-12-08T00:12:10.970Z,28.70
2022-12-08T00:14:42.832Z,33.28
2022-12-08T00:17:14.312Z,27.52
2022-12-08T00:19:44.400Z,29.40
2022-12-08T00:22:14.823Z,30.60
2022-12-08T00:24:46.424Z,26.70
2022-12-08T00:27:18.142Z,36.80
2022-12-08T00:29:47.280Z,38.30
2022-12-08T00:32:16.001Z,31.60
2022-12-08T00:34:44.704Z,32.50
2022-12-08T00:37:13.242Z,31.98
2022-12-08T00:39:41.777Z,29.75
2022-12-08T00:42:14.631Z,34.30
2022-12-08T00:44:45.760Z,35.17
2022-12-08T00:47:19.785Z,38.78
2022-12-08T00:49:50.742Z,37.30
2022-12-08T00:52:19.309Z,34.67
2022-12-08T00:54:48.312Z,34.15
2022-12-08T00:57:18.195Z,35.95
2022-12-08T00:59:46.667Z,41.70
2022-12-08T01:02:15.941Z,38.83
2022-12-08T01:04:44.974Z,37.97
2022-12-08T01:07:13.641Z,35.20
2022-12-08T01:09:42.160Z,39.45
2022-12-08T01:12:10.859Z,49.13
2022-12-08T01:14:40.770Z,41.70
2022-12-08T01:17:09.634Z,37.15
2022-12-08T01:19:39.087Z,33.42
2022-12-08T01:22:07.652Z,40.15
2022-12-08T01:24:36.855Z,37.58
2022-12-08T01:27:05.705Z,43.08
2022-12-08T01:29:34.526Z,37.60
2022-12-08T01:32:04.702Z,40.60
2022-12-08T01:34:33.446Z,38.28
2022-12-08T01:37:02.199Z,36.45
2022-12-08T01:39:31.029Z,40.45
2022-12-08T01:41:59.538Z,39.70
2022-12-08T01:45:06.758Z,37.88
2022-12-08T01:47:49.475Z,42.75
2022-12-08T01:50:21.499Z,39.83
2022-12-08T01:52:56.095Z,35.85
2022-12-08T01:55:32.540Z,51.03
2022-12-08T01:58:09.495Z,39.23
2022-12-08T02:00:38.208Z,36.03
2022-12-08T02:03:14.907Z,43.78
2022-12-08T02:05:44.905Z,42.30
2022-12-08T02:08:15.392Z,39.42
2022-12-08T02:10:44.909Z,40.30
2022-12-08T02:13:17.962Z,41.47
2022-12-08T02:16:02.816Z,41.40
2022-12-08T02:19:28.652Z,46.55
2022-12-08T02:21:59.546Z,39.78
2022-12-08T02:24:38.527Z,41.92
2022-12-08T02:27:39.488Z,39.75
2022-12-08T02:30:25.369Z,44.45
2022-12-08T02:33:50.098Z,47.33
2022-12-08T02:36:28.472Z,46.63
2022-12-08T02:39:07.980Z,40.15
2022-12-08T02:41:47.566Z,41.42
2022-12-08T02:44:29.134Z,44.20
2022-12-08T02:47:05.533Z,37.40
2022-12-08T02:49:37.024Z,39.03
2022-12-08T02:52:08.631Z,33.13
2022-12-08T02:54:38.574Z,43.50
2022-12-08T02:57:26.579Z,39.50
2022-12-08T03:00:10.071Z,40.15
2022-12-08T03:02:57.937Z,36.88
2022-12-08T03:05:52.747Z,39.17
2022-12-08T03:08:32.113Z,42.03
2022-12-08T03:11:10.341Z,46.65
2022-12-08T03:13:46.065Z,35.83
2022-12-08T03:16:21.896Z,41.72
2022-12-08T03:18:57.782Z,49.07
2022-12-08T03:21:28.398Z,43.60
2022-12-08T03:23:58.896Z,52.63
2022-12-08T03:26:37.203Z,48.10
2022-12-08T03:29:06.421Z,45.33
2022-12-08T03:31:43.024Z,43.15
2022-12-08T03:34:15.109Z,36.80
2022-12-08T03:36:45.709Z,52.72
2022-12-08T03:39:14.418Z,46.53
2022-12-08T03:41:43.074Z,41.83
2022-12-08T03:44:11.669Z,52.70
2022-12-08T03:46:40.418Z,48.93
2022-12-08T03:49:08.883Z,51.27
2022-12-08T03:51:37.608Z,39.80
2022-12-08T03:54:07.755Z,51.08
2022-12-08T03:56:39.359Z,44.53
2022-12-08T03:59:09.625Z,44.45
2022-12-08T04:01:38.392Z,44.63
2022-12-08T04:04:06.990Z,49.55
2022-12-08T04:06:35.673Z,45.22
2022-12-08T04:09:05.734Z,50.57
2022-12-08T04:11:35.574Z,38.97
2022-12-08T04:14:04.091Z,47.93
2022-12-08T04:16:32.830Z,51.17
2022-12-08T04:19:01.497Z,49.60
2022-12-08T04:21:30.321Z,46.47
2022-12-08T04:24:01.236Z,44.63
2022-12-08T04:26:30.556Z,46.10
2022-12-08T04:29:00.444Z,46.60
2022-12-08T04:31:29.013Z,44.67
2022-12-08T04:33:57.618Z,47.87
2022-12-08T04:36:26.296Z,38.43
2022-12-08T04:38:55.073Z,47.23
2022-12-08T04:41:23.715Z,42.57
2022-12-08T04:43:52.207Z,47.27
2022-12-08T04:46:22.151Z,39.80
2022-12-08T04:48:50.748Z,46.70
2022-12-08T04:51:21.050Z,49.00
2022-12-08T04:53:49.621Z,39.40
2022-12-08T04:56:20.716Z,46.10
2022-12-08T04:58:49.329Z,54.20
2022-12-08T05:01:18.069Z,52.50
2022-12-08T05:03:48.033Z,47.03
2022-12-08T05:06:16.920Z,41.37
2022-12-08T05:08:45.766Z,40.47
2022-12-08T05:11:14.750Z,41.43
2022-12-08T05:13:43.474Z,40.07
2022-12-08T05:16:15.006Z,40.80
2022-12-08T05:18:44.569Z,45.47
2022-12-08T05:21:14.667Z,47.53
2022-12-08T05:23:43.866Z,43.97
2022-12-08T05:26:12.521Z,49.80
2022-12-08T05:28:42.657Z,38.55
2022-12-08T05:31:12.623Z,43.30
2022-12-08T05:33:42.202Z,52.57
2022-12-08T05:36:15.279Z,47.90
2022-12-08T05:38:44.345Z,51.53
2022-12-08T05:41:17.056Z,43.75
2022-12-08T05:43:45.715Z,44.20
2022-12-08T05:46:16.084Z,42.30
2022-12-08T05:48:44.831Z,39.83
2022-12-08T05:51:20.097Z,41.83
2022-12-08T05:53:50.736Z,45.13
2022-12-08T05:56:20.991Z,40.38
2022-12-08T05:58:51.354Z,40.38
2022-12-08T06:01:25.346Z,44.65
2022-12-08T06:03:54.846Z,42.60
2022-12-08T06:06:24.893Z,44.83
2022-12-08T06:08:54.281Z,48.00
2022-12-08T06:11:27.041Z,46.28
2022-12-08T06:13:56.820Z,44.30
2022-12-08T06:16:27.095Z,74.78
2022-12-08T06:18:57.673Z,57.55
2022-12-08T06:21:27.521Z,61.83
2022-12-08T06:23:56.789Z,63.47
2022-12-08T06:26:25.420Z,63.92
2022-12-08T06:28:55.018Z,48.63
2022-12-08T06:31:26.467Z,65.57
2022-12-08T06:33:56.848Z,51.13
2022-12-08T06:36:29.031Z,61.80
2022-12-08T06:38:58.497Z,46.28
2022-12-08T06:41:27.636Z,60.33
2022-12-08T06:43:57.612Z,54.90
2022-12-08T06:46:26.931Z,71.78
2022-12-08T06:48:55.615Z,82.43
2022-12-08T06:51:24.392Z,84.55
2022-12-08T06:53:54.746Z,71.55
2022-12-08T06:56:27.905Z,61.13
2022-12-08T06:58:56.704Z,60.33
2022-12-08T07:01:25.378Z,61.25
2022-12-08T07:03:54.077Z,100.85
2022-12-08T07:06:25.880Z,123.25
2022-12-08T07:08:56.161Z,124.68
2022-12-08T07:11:24.897Z,157.02
2022-12-08T07:13:53.478Z,137.60
2022-12-08T07:16:22.084Z,146.75
2022-12-08T07:18:51.293Z,169.73
2022-12-08T07:21:20.076Z,82.07
2022-12-08T07:23:56.002Z,65.03
2022-12-08T07:26:27.882Z,84.60
2022-12-08T07:28:56.603Z,115.22
2022-12-08T07:31:28.516Z,202.18
2022-12-08T07:33:58.839Z,171.87
2022-12-08T07:36:28.872Z,125.40
2022-12-08T07:38:57.523Z,132.88
2022-12-08T07:41:28.279Z,168.48
2022-12-08T07:43:58.118Z,83.97
2022-12-08T07:46:28.066Z,87.47
2022-12-08T07:48:57.103Z,71.23
2022-12-08T07:51:26.057Z,75.13
2022-12-08T07:53:55.484Z,54.53
2022-12-08T07:56:24.973Z,59.57
2022-12-08T07:58:55.103Z,63.10
2022-12-08T08:01:28.032Z,68.20
2022-12-08T08:04:01.545Z,57.40
2022-12-08T08:06:30.656Z,62.40
2022-12-08T08:08:59.293Z,56.83
2022-12-08T08:11:29.972Z,58.43
2022-12-08T08:14:00.619Z,70.40
2022-12-08T08:16:33.637Z,63.90
2022-12-08T08:19:06.900Z,52.80
2022-12-08T08:21:45.397Z,56.60
2022-12-08T08:24:14.815Z,62.80
2022-12-08T08:26:44.006Z,59.00
2022-12-08T08:29:16.535Z,65.37
2022-12-08T08:31:45.422Z,61.30
2022-12-08T08:34:14.386Z,65.47
2022-12-08T08:36:43.037Z,57.93
2022-12-08T08:39:12.558Z,78.83
2022-12-08T08:41:41.450Z,59.13
2022-12-08T08:44:10.157Z,59.20
2022-12-08T08:46:40.374Z,66.80
2022-12-08T08:49:09.555Z,51.40
2022-12-08T08:51:38.449Z,64.63
2022-12-08T08:54:07.117Z,57.50
2022-12-08T08:56:35.631Z,102.43
2022-12-08T08:59:04.560Z,55.87
2022-12-08T09:01:33.250Z,77.47
2022-12-08T09:04:03.669Z,54.80
2022-12-08T09:06:33.581Z,73.67
2022-12-08T09:09:03.142Z,63.80
2022-12-08T09:11:32.780Z,72.07
2022-12-08T09:14:01.494Z,61.17
2022-12-08T09:16:30.234Z,53.20
2022-12-08T09:18:59.355Z,57.37
2022-12-08T09:21:29.376Z,54.17
2022-12-08T09:24:00.434Z,60.23
2022-12-08T09:26:29.997Z,56.80
2022-12-08T09:29:00.465Z,49.33
2022-12-08T09:31:29.334Z,54.00
2022-12-08T09:33:58.108Z,58.87
2022-12-08T09:36:28.552Z,52.80
2022-12-08T09:38:57.800Z,46.00
2022-12-08T09:41:41.788Z,58.10
2022-12-08T09:44:45.309Z,54.47
2022-12-08T09:47:26.715Z,54.80
2022-12-08T09:50:07.788Z,57.93
2022-12-08T09:52:44.805Z,47.83
2022-12-08T09:55:24.024Z,50.33
2022-12-08T09:58:04.101Z,47.97
2022-12-08T10:00:33.431Z,44.90
2022-12-08T10:03:03.434Z,44.63
2022-12-08T10:05:39.047Z,50.03
2022-12-08T10:08:20.002Z,46.17
2022-12-08T10:10:57.921Z,48.80
2022-12-08T10:13:38.055Z,58.00
2022-12-08T10:16:29.788Z,48.37
2022-12-08T10:19:14.094Z,56.90
2022-12-08T10:21:43.310Z,53.27
2022-12-08T10:24:24.014Z,52.20
2022-12-08T10:26:53.045Z,47.00
2022-12-08T10:29:21.525Z,58.27
2022-12-08T10:31:50.409Z,56.07
2022-12-08T10:34:23.184Z,59.17
2022-12-08T10:36:57.039Z,43.03
2022-12-08T10:39:39.335Z,49.80
2022-12-08T10:42:20.011Z,52.40
2022-12-08T10:45:01.995Z,57.47
2022-12-08T10:47:37.863Z,52.40
2022-12-08T10:50:20.037Z,54.70
2022-12-08T10:52:57.359Z,44.30
2022-12-08T10:55:30.070Z,40.93
2022-12-08T10:57:58.961Z,70.87
2022-12-08T11:00:29.342Z,57.20
2022-12-08T11:03:04.457Z,54.17
2022-12-08T11:05:38.090Z,33.53
2022-12-08T11:08:09.782Z,32.57
2022-12-08T11:10:46.843Z,36.33
2022-12-08T11:13:24.809Z,34.87
2022-12-08T11:15:56.173Z,35.40
2022-12-08T11:18:32.198Z,37.60
2022-12-08T11:21:09.096Z,40.40
2022-12-08T11:23:38.913Z,38.73
2022-12-08T11:26:23.179Z,39.27
2022-12-08T11:28:51.785Z,39.90
2022-12-08T11:31:31.449Z,36.30
2022-12-08T11:34:00.106Z,34.63
2022-12-08T11:36:34.763Z,35.27
2022-12-08T11:39:06.213Z,40.80
2022-12-08T11:41:42.087Z,35.27
2022-12-08T11:44:27.099Z,36.10
2022-12-08T11:47:00.984Z,32.23
2022-12-08T11:49:37.908Z,37.20
2022-12-08T11:52:19.230Z,36.07
2022-12-08T11:54:56.195Z,33.80
2022-12-08T11:57:30.738Z,33.00
2022-12-08T12:00:04.013Z,32.10
2022-12-08T12:02:52.838Z,33.53
2022-12-08T12:08:47.201Z,30.67
2022-12-08T12:11:47.651Z,31.03
2022-12-08T12:14:47.091Z,29.73
2022-12-08T12:17:41.554Z,34.10
2022-12-08T12:20:20.054Z,31.43
2022-12-08T12:22:57.042Z,27.37
2022-12-08T12:25:27.846Z,36.30
2022-12-08T12:28:04.114Z,30.63
2022-12-08T12:30:55.482Z,34.67
2022-12-08T12:33:24.819Z,34.40
2022-12-08T12:35:58.072Z,32.23
2022-12-08T12:38:51.797Z,32.70
2022-12-08T12:41:27.196Z,28.83
2022-12-08T12:44:38.955Z,28.10
2022-12-08T12:47:16.042Z,30.30
2022-12-08T12:50:08.779Z,31.87
2022-12-08T12:52:53.184Z,30.87
2022-12-08T12:55:54.594Z,35.87
2022-12-08T12:58:42.537Z,40.27
2022-12-08T13:01:57.702Z,26.47
2022-12-08T13:04:36.891Z,28.63
2022-12-08T13:07:07.119Z,35.37
2022-12-08T13:09:41.571Z,31.40
2022-12-08T13:12:20.474Z,33.17
2022-12-08T13:14:52.459Z,34.33
2022-12-08T13:17:31.450Z,27.50
2022-12-08T13:20:07.225Z,29.30
2022-12-08T13:23:13.519Z,25.97
2022-12-08T13:25:54.731Z,26.37
2022-12-08T13:28:29.466Z,29.00
2022-12-08T13:31:00.208Z,31.10
2022-12-08T13:33:33.733Z,30.03
2022-12-08T13:36:18.562Z,30.03
2022-12-08T13:38:49.927Z,30.27
2022-12-08T13:41:25.830Z,27.00
2022-12-08T13:45:03.592Z,32.07
2022-12-08T13:58:40.153Z,34.53
2022-12-08T14:01:16.337Z,33.70
2022-12-08T14:04:22.170Z,36.10
2022-12-08T14:06:47.735Z,37.60
2022-12-08T14:09:22.305Z,39.03
2022-12-08T14:11:58.064Z,36.30
2022-12-08T14:15:02.453Z,41.10
2022-12-08T14:17:22.415Z,35.90
2022-12-08T14:19:57.508Z,48.37
2022-12-08T14:22:33.235Z,39.43
2022-12-08T14:25:05.731Z,40.27
2022-12-08T14:27:37.630Z,39.43
2022-12-08T14:30:16.685Z,41.73
2022-12-08T14:32:50.312Z,44.37
2022-12-08T14:35:26.874Z,38.00
2022-12-08T14:37:59.393Z,42.93
2022-12-08T14:40:35.312Z,42.83
2022-12-08T14:43:18.415Z,36.23
2022-12-08T14:45:53.432Z,45.40
2022-12-08T14:48:25.731Z,36.60
2022-12-08T14:51:05.993Z,48.27
2022-12-08T14:53:42.226Z,51.87
2022-12-08T14:56:21.596Z,57.40
2022-12-08T14:59:02.695Z,41.67
2022-12-08T15:01:32.176Z,39.80
2022-12-08T15:04:19.126Z,40.47
2022-12-08T15:06:54.421Z,40.30
2022-12-08T15:09:36.587Z,45.25
2022-12-08T15:12:26.414Z,47.83
2022-12-08T15:15:02.139Z,48.90
2022-12-08T15:17:36.976Z,41.90
2022-12-08T15:20:08.346Z,50.63
2022-12-08T15:22:37.356Z,51.58
2022-12-08T15:25:13.757Z,47.40
2022-12-08T15:27:50.442Z,49.47
2022-12-08T15:30:20.359Z,52.10
2022-12-08T15:32:54.672Z,52.70
2022-12-08T15:35:23.515Z,54.53
2022-12-08T15:37:52.174Z,58.42
2022-12-08T15:40:26.276Z,60.95
2022-12-08T15:42:56.278Z,57.13
2022-12-08T15:45:31.782Z,56.30
2022-12-08T15:48:00.424Z,62.27
2022-12-08T15:50:29.089Z,61.30
2022-12-08T15:52:57.755Z,52.23
2022-12-08T15:55:26.274Z,56.27
2022-12-08T16:00:54.160Z,52.77
2022-12-08T16:04:14.320Z,63.10
2022-12-08T16:09:19.558Z,54.93
2022-12-08T16:12:08.336Z,54.43
2022-12-08T16:17:30.928Z,53.50
2022-12-08T16:20:00.149Z,54.77
2022-12-08T16:25:22.303Z,56.50
2022-12-08T16:28:36.991Z,53.67
2022-12-08T16:30:44.780Z,61.20
2022-12-08T16:33:14.308Z,54.57
2022-12-08T16:35:43.441Z,52.13
2022-12-08T16:38:16.665Z,51.37
2022-12-08T16:41:05.127Z,70.83
2022-12-08T16:43:35.317Z,61.30
2022-12-08T16:46:05.839Z,58.80
2022-12-08T16:48:34.591Z,65.10
2022-12-08T16:51:04.533Z,53.78
2022-12-08T16:53:37.289Z,54.40
2022-12-08T16:56:06.339Z,51.22
2022-12-08T16:58:34.848Z,63.28
2022-12-08T17:01:05.281Z,60.17
2022-12-08T17:03:34.429Z,65.47
2022-12-08T17:06:09.025Z,62.37
2022-12-08T17:08:41.059Z,61.23
2022-12-08T17:11:12.826Z,64.03
2022-12-08T17:13:43.174Z,57.07
2022-12-08T17:16:20.257Z,68.57
2022-12-08T17:18:49.279Z,60.47
2022-12-08T17:21:19.081Z,64.90
2022-12-08T17:23:48.510Z,77.80
2022-12-08T17:26:17.272Z,78.90
2022-12-08T17:29:02.273Z,61.63
2022-12-08T17:31:33.761Z,60.97
2022-12-08T17:34:03.624Z,64.53
2022-12-08T17:36:33.010Z,58.23
2022-12-08T17:39:02.031Z,75.87
2022-12-08T17:41:31.821Z,78.23
2022-12-08T17:44:00.810Z,67.50
2022-12-08T17:46:31.426Z,71.83
2022-12-08T17:49:00.374Z,68.23
2022-12-08T17:51:29.099Z,68.93
2022-12-08T17:54:01.001Z,70.67
2022-12-08T17:56:30.011Z,75.60
2022-12-08T17:59:03.334Z,70.97
2022-12-08T18:01:34.618Z,80.83
2022-12-08T18:04:06.857Z,66.33
2022-12-08T18:06:36.683Z,73.33
2022-12-08T18:09:08.798Z,119.20
2022-12-08T18:11:47.095Z,87.40
2022-12-08T18:14:17.600Z,72.67
2022-12-08T18:16:49.096Z,87.57
2022-12-08T18:19:18.021Z,92.27
2022-12-08T18:21:46.732Z,80.60
2022-12-08T18:24:22.168Z,100.77
2022-12-08T18:26:55.339Z,70.57
2022-12-08T18:29:25.288Z,94.83
2022-12-08T18:31:55.524Z,90.57
2022-12-08T18:34:27.063Z,90.17
2022-12-08T18:36:56.048Z,84.37
2022-12-08T18:39:27.546Z,90.40
2022-12-08T18:41:58.581Z,78.60
2022-12-08T18:44:27.272Z,81.10
2022-12-08T18:46:57.510Z,88.93
2022-12-08T18:49:26.447Z,95.40
2022-12-08T18:51:54.951Z,85.50
2022-12-08T18:54:37.110Z,111.25
2022-12-08T18:57:12.507Z,146.00
2022-12-08T18:59:41.079Z,122.37
2022-12-08T19:02:12.322Z,112.53
2022-12-08T19:04:42.121Z,93.10
2022-12-08T19:07:12.364Z,87.28
2022-12-08T19:09:42.229Z,92.37
2022-12-08T19:12:12.951Z,84.25
2022-12-08T19:14:42.414Z,83.93
2022-12-08T19:17:12.456Z,103.67
2022-12-08T19:19:41.826Z,82.63
2022-12-08T19:22:10.419Z,76.60
2022-12-08T19:24:39.107Z,74.00
2022-12-08T19:27:10.443Z,86.00
2022-12-08T19:29:39.037Z,81.47
2022-12-08T19:32:07.813Z,84.10
2022-12-08T19:34:37.861Z,87.60
2022-12-08T19:37:06.800Z,93.65
2022-12-08T19:39:52.505Z,88.47
2022-12-08T19:42:39.918Z,90.97
2022-12-08T19:45:14.095Z,100.07
2022-12-08T19:47:43.643Z,83.73
2022-12-08T19:50:33.800Z,77.57
2022-12-08T19:53:05.102Z,93.47
2022-12-08T19:55:34.600Z,91.67
2022-12-08T19:58:03.776Z,83.50
2022-12-08T20:00:34.447Z,89.70
2022-12-08T20:03:04.849Z,95.78
2022-12-08T20:05:37.584Z,93.05
2022-12-08T20:08:07.291Z,77.70
2022-12-08T20:10:39.617Z,74.30
2022-12-08T20:13:27.655Z,84.87
2022-12-08T20:15:56.624Z,89.20
2022-12-08T20:18:30.034Z,71.13
2022-12-08T20:21:00.512Z,75.40
2022-12-08T20:23:29.060Z,79.00
2022-12-08T20:25:57.782Z,69.57
2022-12-08T20:28:26.737Z,83.73
2022-12-08T20:30:55.305Z,73.90
2022-12-08T20:33:24.268Z,80.53
2022-12-08T20:36:02.329Z,94.70
2022-12-08T20:38:34.808Z,79.20
2022-12-08T20:41:03.594Z,79.10
2022-12-08T20:43:32.175Z,90.70
2022-12-08T20:46:00.774Z,90.40
2022-12-08T20:48:29.728Z,95.03
2022-12-08T20:50:59.770Z,88.13
2022-12-08T20:53:28.488Z,91.40
2022-12-08T20:55:57.492Z,92.07
2022-12-08T20:58:26.350Z,93.40
2022-12-08T21:00:55.083Z,80.93
2022-12-08T21:03:23.820Z,85.53
2022-12-08T21:05:53.641Z,94.75
2022-12-08T21:08:25.917Z,98.17
2022-12-08T21:10:56.690Z,75.50
2022-12-08T21:13:30.561Z,94.40
2022-12-08T21:15:59.963Z,90.45
2022-12-08T21:18:38.924Z,71.90
2022-12-08T21:21:11.379Z,80.93
2022-12-08T21:23:42.093Z,84.27
2022-12-08T21:26:27.851Z,72.83
2022-12-08T21:28:59.049Z,83.43
2022-12-08T21:31:29.350Z,72.60
2022-12-08T21:33:58.519Z,71.23
2022-12-08T21:36:31.697Z,72.37
2022-12-08T21:39:02.887Z,82.23
2022-12-08T21:41:49.330Z,83.70
2022-12-08T21:44:19.555Z,87.40
2022-12-08T21:46:48.476Z,86.77
2022-12-08T21:49:18.008Z,83.07
2022-12-08T21:51:46.591Z,84.43
2022-12-08T21:54:18.970Z,74.67
2022-12-08T21:56:50.471Z,76.00
2022-12-08T21:59:20.817Z,73.00
2022-12-08T22:01:49.830Z,80.67
2022-12-08T22:04:21.544Z,77.93
2022-12-08T22:06:50.773Z,74.30
2022-12-08T22:09:21.009Z,75.83
2022-12-08T22:11:49.866Z,84.17
2022-12-08T22:14:18.569Z,84.43
2022-12-08T22:16:47.380Z,87.17
2022-12-08T22:19:16.021Z,77.83
2022-12-08T22:21:44.732Z,73.70
2022-12-08T22:24:13.363Z,95.45
2022-12-08T22:26:43.174Z,119.50
2022-12-08T22:29:11.821Z,83.53
2022-12-08T22:31:40.542Z,86.87
2022-12-08T22:34:09.210Z,73.82
2022-12-08T22:36:37.909Z,74.20
2022-12-08T22:39:06.645Z,86.53
2022-12-08T22:41:35.193Z,79.07
2022-12-08T22:44:07.008Z,79.87
2022-12-08T22:46:35.880Z,76.37
2022-12-08T22:49:04.638Z,103.77
2022-12-08T22:51:33.212Z,67.43
2022-12-08T22:54:01.681Z,77.70
2022-12-08T22:56:30.183Z,89.63
2022-12-08T22:58:59.898Z,74.25
2022-12-08T23:01:33.230Z,83.95
2022-12-08T23:04:03.061Z,83.60
2022-12-08T23:06:32.733Z,84.47
2022-12-08T23:09:01.762Z,82.57
2022-12-08T23:11:31.964Z,81.93
2022-12-08T23:14:01.589Z,85.37
2022-12-08T23:16:33.540Z,83.63
2022-12-08T23:19:02.312Z,80.10
2022-12-08T23:21:31.148Z,92.38
2022-12-08T23:24:02.678Z,80.15
2022-12-08T23:26:35.332Z,82.57
2022-12-08T23:29:05.074Z,80.07
2022-12-08T23:31:35.063Z,73.47
2022-12-08T23:34:03.977Z,92.40
2022-12-08T23:36:32.689Z,81.03
2022-12-08T23:39:01.422Z,75.87
2022-12-08T23:41:30.075Z,87.67
2022-12-08T23:43:59.524Z,78.27
2022-12-08T23:46:28.243Z,90.35
2022-12-08T23:48:58.593Z,87.22
2022-12-08T23:51:27.133Z,81.63
2022-12-08T23:53:55.737Z,79.23
2022-12-08T23:56:30.055Z,80.63
2022-12-08T23:58:59.424Z,81.27
